Time;durP1;ratioP1;P1;durP2;ratioP2;P2;SDS_P1;SDS_P2;PMS_P1;PMS_P2;Temp;Humidity;BMP_temperature;BMP_pressure;BME280_temperature;BME280_humidity;BME280_pressure;Samples;Min_cycle;Max_cycle;Signal;HPM_P1;HPM_P2
2022/03/12 00:00:46;;;;;;;7.40;4.70;;;;;;;15.15;16.40;101106.88;4921085;29;20051;-82
2022/03/12 00:03:13;;;;;;;5.80;4.40;;;;;;;15.14;16.43;101098.81;4941194;29;20048;-83
2022/03/12 00:06:00;;;;;;;6.70;4.53;;;;;;;15.14;16.54;101099.69;4935151;29;20130;-83
2022/03/12 00:08:40;;;;;;;7.00;4.72;;;;;;;15.14;16.63;101101.56;4926844;29;20490;-82
2022/03/12 00:11:09;;;;;;;6.97;4.72;;;;;;;15.13;16.55;101099.81;4941652;29;20072;-83
2022/03/12 00:13:36;;;;;;;6.70;4.32;;;;;;;15.13;16.58;101106.16;4943180;29;20070;-82
2022/03/12 00:16:04;;;;;;;7.75;4.90;;;;;;;15.14;16.60;101102.44;4922571;29;20055;-82
2022/03/12 00:18:31;;;;;;;6.47;4.60;;;;;;;15.13;16.63;101103.41;4947051;29;20158;-82
2022/03/12 00:21:02;;;;;;;7.13;4.40;;;;;;;15.13;16.50;101097.94;4933698;29;20055;-83
2022/03/12 00:23:30;;;;;;;7.75;4.38;;;;;;;15.13;16.54;101097.09;4935986;28;20063;-83
2022/03/12 00:25:58;;;;;;;6.38;4.68;;;;;;;15.10;16.32;101100.94;4940340;29;20048;-83
2022/03/12 00:28:26;;;;;;;6.88;4.72;;;;;;;15.11;16.62;101099.06;4933456;28;20082;-82
2022/03/12 00:30:54;;;;;;;7.22;5.10;;;;;;;15.09;16.63;101101.91;4941482;29;20411;-83
2022/03/12 00:33:21;;;;;;;7.30;4.47;;;;;;;15.09;16.50;101103.78;4935752;28;20509;-83
2022/03/12 00:35:49;;;;;;;7.32;4.43;;;;;;;15.08;16.44;101102.91;4930067;29;20063;-83
2022/03/12 00:38:19;;;;;;;6.70;4.15;;;;;;;15.09;16.63;101106.50;4928510;29;20059;-83
2022/03/12 00:40:45;;;;;;;7.45;4.50;;;;;;;15.08;16.69;101105.66;4934810;29;20460;-83
2022/03/12 00:43:12;;;;;;;7.10;4.57;;;;;;;15.07;16.46;101103.06;4915157;29;20111;-84
2022/03/12 00:45:39;;;;;;;6.47;4.60;;;;;;;15.06;16.76;101099.47;4922119;29;20067;-83
2022/03/12 00:48:06;;;;;;;7.22;4.60;;;;;;;15.06;16.77;101107.66;4936732;29;20055;-83
2022/03/12 00:50:53;;;;;;;6.07;4.15;;;;;;;15.05;16.64;101099.56;4921116;29;20051;-83
2022/03/12 00:53:20;;;;;;;7.45;4.97;;;;;;;15.05;16.33;101111.38;4939153;29;20052;-83
2022/03/12 00:55:47;;;;;;;9.45;4.90;;;;;;;15.05;16.53;101103.19;4934025;29;20158;-83
2022/03/12 00:58:14;;;;;;;7.35;4.63;;;;;;;15.05;16.57;101111.38;4932783;29;20426;-83
2022/03/12 01:00:41;;;;;;;6.90;4.55;;;;;;;15.04;16.59;101114.25;4934807;29;20052;-83
2022/03/12 01:03:08;;;;;;;7.75;4.85;;;;;;;15.04;16.57;101108.78;4934911;29;20044;-83
2022/03/12 01:05:50;;;;;;;7.38;4.82;;;;;;;15.05;16.51;101114.13;4936582;29;20079;-83
2022/03/12 01:08:19;;;;;;;6.50;4.53;;;;;;;14.99;16.73;101114.59;4935475;29;20048;-83
2022/03/12 01:10:46;;;;;;;7.22;4.88;;;;;;;15.02;16.75;101113.47;4943752;29;20079;-83
2022/03/12 01:13:14;;;;;;;7.15;4.82;;;;;;;15.02;16.82;101121.69;4933766;29;20056;-83
2022/03/12 01:15:41;;;;;;;8.45;4.72;;;;;;;15.02;16.62;101127.16;4935548;29;20058;-83
2022/03/12 01:18:17;;;;;;;6.32;4.53;;;;;;;15.04;16.38;101130.66;4938990;28;20358;-84
2022/03/12 01:20:44;;;;;;;7.75;5.22;;;;;;;15.00;16.77;101121.81;4929346;29;20115;-83
2022/03/12 01:23:13;;;;;;;6.93;4.85;;;;;;;15.03;16.70;101142.56;4935771;29;20087;-83
2022/03/12 01:25:44;;;;;;;7.18;4.72;;;;;;;15.02;16.79;101125.28;4941839;29;20070;-83
2022/03/12 01:28:13;;;;;;;9.70;5.05;;;;;;;15.02;16.69;101129.88;4911746;28;20115;-84
2022/03/12 01:30:42;;;;;;;6.97;4.88;;;;;;;15.02;16.71;101124.41;4927937;29;20056;-83
2022/03/12 01:33:10;;;;;;;7.60;5.13;;;;;;;15.02;16.57;101127.16;4918180;29;20417;-83
2022/03/12 01:35:38;;;;;;;7.32;4.97;;;;;;;15.02;16.78;101132.63;4927625;29;20044;-83
2022/03/12 01:38:05;;;;;;;7.03;4.90;;;;;;;15.04;16.87;101127.91;4919135;29;20051;-83
2022/03/12 01:40:33;;;;;;;6.70;5.00;;;;;;;15.04;16.92;101136.13;4930956;29;20060;-83
2022/03/12 01:43:01;;;;;;;7.43;4.97;;;;;;;15.02;16.62;101127.16;4919542;29;20047;-83
2022/03/12 01:45:28;;;;;;;6.90;4.90;;;;;;;15.00;16.71;101130.00;4936389;29;20519;-83
2022/03/12 01:48:01;;;;;;;5.88;4.30;;;;;;;15.02;16.50;101130.75;4933590;29;20056;-83
2022/03/12 01:50:31;;;;;;;7.65;4.90;;;;;;;14.99;16.73;101132.91;4925688;29;20058;-83
2022/03/12 01:53:02;;;;;;;8.30;5.68;;;;;;;15.02;16.75;101132.63;4921965;29;20058;-83
2022/03/12 01:55:32;;;;;;;7.90;5.40;;;;;;;15.00;17.00;101140.94;4930335;29;20062;-83
2022/03/12 01:58:02;;;;;;;7.10;5.30;;;;;;;14.98;16.84;101129.28;4927145;29;20484;-84
2022/03/12 02:00:41;;;;;;;6.65;4.65;;;;;;;14.99;16.70;101130.16;4938965;29;20142;-83
2022/03/12 02:03:10;;;;;;;6.72;4.78;;;;;;;14.95;16.81;101132.25;4915995;29;20118;-83
2022/03/12 02:05:38;;;;;;;5.97;4.47;;;;;;;14.93;16.70;101144.31;4930739;29;20507;-83
2022/03/12 02:08:06;;;;;;;7.13;4.90;;;;;;;14.93;16.94;101138.84;4928292;29;20078;-83
2022/03/12 02:10:36;;;;;;;7.90;5.18;;;;;;;14.90;17.02;101130.91;4921867;29;20070;-83
2022/03/12 02:13:03;;;;;;;7.85;5.40;;;;;;;14.88;17.14;101131.00;4907931;29;20055;-83
2022/03/12 02:15:30;;;;;;;7.80;4.57;;;;;;;14.87;17.12;101131.13;4920469;29;20060;-83
2022/03/12 02:17:57;;;;;;;7.78;4.97;;;;;;;14.86;17.00;101127.53;4946956;29;20083;-83
2022/03/12 02:20:24;;;;;;;7.93;5.65;;;;;;;14.87;16.87;101133.88;4936632;29;20106;-83
2022/03/12 02:22:53;;;;;;;7.38;4.95;;;;;;;14.84;16.99;101143.16;4930607;29;20364;-83
2022/03/12 02:25:33;;;;;;;7.90;5.28;;;;;;;14.84;16.98;101141.31;4919550;29;20058;-83
2022/03/12 02:28:09;;;;;;;7.13;5.00;;;;;;;14.80;17.23;101145.31;4942306;29;20079;-83
2022/03/12 02:30:48;;;;;;;8.18;4.97;;;;;;;14.78;16.91;101143.66;4915409;29;20291;-82
2022/03/12 02:33:20;;;;;;;7.75;4.55;;;;;;;14.77;17.27;101151.00;4916795;29;20055;-82
2022/03/12 02:35:47;;;;;;;6.88;4.65;;;;;;;14.77;17.00;101145.53;4934573;29;20133;-82
2022/03/12 02:38:14;;;;;;;7.20;4.32;;;;;;;14.79;17.47;101159.09;4914565;29;20091;-82
2022/03/12 02:40:44;;;;;;;7.50;4.95;;;;;;;14.79;17.22;101153.63;4931780;29;20058;-82
2022/03/12 02:43:14;;;;;;;6.45;4.72;;;;;;;14.81;17.41;101162.56;4926556;29;20130;-82
2022/03/12 02:45:41;;;;;;;7.85;5.20;;;;;;;14.82;17.38;101159.69;4911905;29;20115;-82
2022/03/12 02:48:08;;;;;;;7.82;5.13;;;;;;;14.81;17.53;101159.84;4921156;29;20114;-82
2022/03/12 02:50:36;;;;;;;6.88;4.70;;;;;;;14.82;17.41;101161.59;4933610;29;20059;-82
2022/03/12 02:53:04;;;;;;;7.22;4.85;;;;;;;14.83;17.64;101161.44;4947182;29;20055;-82
2022/03/12 02:55:34;;;;;;;7.55;5.43;;;;;;;14.83;17.47;101161.44;4936204;29;20110;-82
2022/03/12 02:58:01;;;;;;;7.18;4.78;;;;;;;14.83;17.32;101169.63;4939191;29;20082;-82
2022/03/12 03:00:36;;;;;;;;;;;;;;;14.62;17.65;101157.69;4933800;29;20047;-82
2022/03/12 03:03:06;;;;;;;7.00;4.78;;;;;;;14.80;17.25;101171.75;4932131;29;19930;-83
2022/03/12 03:05:47;;;;;;;6.53;4.80;;;;;;;14.82;17.38;101151.50;4931852;29;20050;-83
2022/03/12 03:08:22;;;;;;;7.60;5.10;;;;;;;14.83;17.48;101164.16;4913387;29;20040;-83
2022/03/12 03:10:50;;;;;;;8.13;5.10;;;;;;;14.80;17.61;101174.50;4928684;29;20075;-83
2022/03/12 03:13:17;;;;;;;8.13;5.50;;;;;;;14.78;17.29;101165.53;4930205;29;20547;-83
2022/03/12 03:16:00;;;;;;;8.32;5.60;;;;;;;14.79;17.62;101161.81;4939551;29;20055;-83
2022/03/12 03:18:33;;;;;;;9.50;5.40;;;;;;;14.75;17.25;101165.78;4940594;29;20085;-82
2022/03/12 03:21:02;;;;;;;7.40;5.13;;;;;;;14.71;17.21;101170.63;4923832;29;20138;-83
2022/03/12 03:23:30;;;;;;;7.32;5.30;;;;;;;14.71;17.54;101164.28;4932631;29;21925;-83
2022/03/12 03:25:59;;;;;;;7.05;4.88;;;;;;;14.70;17.52;101163.41;4932319;29;20448;-83
2022/03/12 03:28:26;;;;;;;8.50;5.38;;;;;;;14.67;17.49;101163.66;4931729;29;20064;-83
2022/03/12 03:30:53;;;;;;;8.85;5.65;;;;;;;14.66;17.57;101161.06;4927635;29;20035;-83
2022/03/12 03:33:22;;;;;;;8.75;5.45;;;;;;;14.65;17.53;101173.84;4917775;29;20167;-83
2022/03/12 03:35:50;;;;;;;8.35;5.47;;;;;;;14.62;17.90;101173.22;4926971;29;20055;-82
2022/03/12 03:38:18;;;;;;;8.57;5.20;;;;;;;14.62;17.56;101175.94;4931247;29;20138;-82
2022/03/12 03:40:46;;;;;;;7.97;5.30;;;;;;;14.58;17.56;101167.09;4928385;29;20077;-82
2022/03/12 03:43:17;;;;;;;8.38;5.32;;;;;;;14.57;17.65;101165.38;4917264;29;20059;-82
2022/03/12 03:45:47;;;;;;;9.80;5.30;;;;;;;14.58;17.77;101179.88;4914602;29;20052;-82
2022/03/12 03:48:17;;;;;;;9.10;5.55;;;;;;;14.56;17.86;101181.91;4930740;29;20063;-83
2022/03/12 03:50:46;;;;;;;7.32;5.65;;;;;;;14.57;17.92;101172.72;4921272;29;20114;-82
2022/03/12 03:53:16;;;;;;;8.32;5.10;;;;;;;14.56;17.87;101177.31;4934030;28;20055;-83
2022/03/12 03:55:43;;;;;;;7.93;5.15;;;;;;;14.55;17.73;101189.22;4919887;29;20448;-83
2022/03/12 03:58:14;;;;;;;8.13;5.22;;;;;;;14.57;17.93;101191.84;4926535;29;20131;-82
2022/03/12 04:00:54;;;;;;;7.88;5.18;;;;;;;14.58;18.09;101188.97;4914686;29;20052;-82
2022/03/12 04:03:21;;;;;;;8.15;5.20;;;;;;;14.55;17.90;101191.94;4925756;29;20493;-83
2022/03/12 04:05:48;;;;;;;8.27;5.05;;;;;;;14.57;17.81;101203.66;4924198;29;20091;-83
2022/03/12 04:08:15;;;;;;;8.60;5.60;;;;;;;14.59;17.96;101200.75;4923076;29;20131;-82
2022/03/12 04:10:42;;;;;;;7.43;4.88;;;;;;;14.57;17.87;101197.31;4926772;29;20102;-82
2022/03/12 04:13:21;;;;;;;8.82;5.30;;;;;;;14.61;17.93;101212.44;4941542;29;20459;-82
2022/03/12 04:15:51;;;;;;;7.85;5.50;;;;;;;14.59;17.83;101204.38;4920236;29;20411;-82
2022/03/12 04:18:21;;;;;;;7.70;5.00;;;;;;;14.59;18.38;101218.03;4932638;28;20052;-83
2022/03/12 04:20:50;;;;;;;8.65;5.22;;;;;;;14.59;18.31;101218.03;4933875;29;20048;-82
2022/03/12 04:23:21;;;;;;;8.63;5.53;;;;;;;14.58;18.17;101212.69;4916438;28;20052;-82
2022/03/12 04:25:49;;;;;;;7.07;4.57;;;;;;;14.56;18.25;101214.69;4925225;29;20484;-82
2022/03/12 04:28:16;;;;;;;8.10;5.78;;;;;;;14.55;18.30;101210.22;4941880;28;20075;-82
2022/03/12 04:30:44;;;;;;;8.63;6.32;;;;;;;14.54;18.26;101214.81;4930694;29;20043;-84
2022/03/12 04:33:11;;;;;;;8.32;5.40;;;;;;;14.54;18.37;101217.53;4942824;29;20058;-83
2022/03/12 04:35:39;;;;;;;7.22;5.45;;;;;;;14.52;18.36;101208.56;4927665;29;20475;-83
2022/03/12 04:38:07;;;;;;;6.95;5.38;;;;;;;14.51;18.21;101219.63;4936862;29;20047;-82
2022/03/12 04:40:35;;;;;;;7.38;5.35;;;;;;;14.50;18.40;101226.94;4934671;29;20513;-82
2022/03/12 04:43:04;;;;;;;7.28;5.22;;;;;;;14.51;18.46;101222.34;4934081;29;20511;-82
2022/03/12 04:45:31;;;;;;;7.22;5.15;;;;;;;14.49;18.48;101219.75;4931728;29;20051;-83
2022/03/12 04:47:58;;;;;;;7.70;5.35;;;;;;;14.49;18.54;101227.09;4930255;29;20099;-83
2022/03/12 04:50:25;;;;;;;8.57;5.40;;;;;;;14.51;18.51;101230.53;4918435;29;20051;-83
2022/03/12 04:52:56;;;;;;;8.50;5.22;;;;;;;14.51;18.40;101230.53;4926526;29;20292;-83
2022/03/12 04:55:26;;;;;;;8.90;5.45;;;;;;;14.51;18.52;101231.41;4939811;29;20051;-83
2022/03/12 04:57:53;;;;;;;8.50;5.18;;;;;;;14.51;18.71;101228.69;4939959;29;20070;-83
2022/03/12 05:00:26;;;;;;;7.75;5.53;;;;;;;14.54;18.89;101238.53;4926254;29;20447;-83
2022/03/12 05:03:01;;;;;;;9.32;6.30;;;;;;;14.53;18.80;101234.03;4932600;29;20206;-83
2022/03/12 05:05:28;;;;;;;8.63;5.72;;;;;;;14.49;18.84;101227.97;4924199;29;20047;-83
2022/03/12 05:07:56;;;;;;;9.25;5.97;;;;;;;14.50;18.97;101240.59;4925300;28;20047;-83
2022/03/12 05:10:28;;;;;;;8.07;5.53;;;;;;;14.50;18.85;101240.59;4931894;28;20126;-83
2022/03/12 05:13:00;;;;;;;8.60;6.03;;;;;;;14.50;18.58;101248.81;4918307;29;20551;-83
2022/03/12 05:15:36;;;;;;;9.70;5.65;;;;;;;14.48;18.85;101247.19;4928268;29;20047;-83
2022/03/12 05:18:07;;;;;;;8.73;5.47;;;;;;;14.49;18.83;101258.00;4950757;29;20055;-82
2022/03/12 05:20:39;;;;;;;8.73;5.43;;;;;;;14.53;18.93;101244.97;4917883;29;20114;-83
2022/03/12 05:23:07;;;;;;;8.65;5.75;;;;;;;14.51;18.66;101253.28;4935938;29;20056;-84
2022/03/12 05:25:37;;;;;;;9.70;6.25;;;;;;;14.51;19.11;101252.41;4935128;29;20391;-83
2022/03/12 05:28:04;;;;;;;7.38;5.15;;;;;;;14.49;18.92;101254.41;4941532;29;20048;-83
2022/03/12 05:30:31;;;;;;;9.20;5.85;;;;;;;14.48;19.21;101250.81;4942753;28;20051;-83
2022/03/12 05:33:00;;;;;;;8.73;5.55;;;;;;;14.46;19.23;101261.84;4919234;29;20047;-83
2022/03/12 05:35:27;;;;;;;9.02;5.63;;;;;;;14.46;19.21;101260.97;4928516;29;20071;-82
2022/03/12 05:37:55;;;;;;;8.68;5.88;;;;;;;14.44;19.00;101258.34;4935119;29;20060;-83
2022/03/12 05:40:26;;;;;;;9.25;6.20;;;;;;;14.43;19.19;101269.38;4923279;29;20158;-83
2022/03/12 05:42:55;;;;;;;9.15;5.50;;;;;;;14.41;19.28;101265.94;4921968;29;20048;-83
2022/03/12 05:45:23;;;;;;;8.38;5.57;;;;;;;14.39;19.27;101273.34;4932947;29;20080;-83
2022/03/12 05:47:51;;;;;;;10.07;5.75;;;;;;;14.37;19.29;101267.97;4934012;29;20412;-83
2022/03/12 05:50:19;;;;;;;9.30;6.25;;;;;;;14.36;19.21;101271.69;4937218;29;20051;-83
2022/03/12 05:52:48;;;;;;;7.65;5.22;;;;;;;14.35;19.44;101274.53;4924161;29;20141;-82
2022/03/12 05:55:21;;;;;;;8.07;5.70;;;;;;;14.36;19.72;101268.09;4932957;29;20054;-83
2022/03/12 05:57:48;;;;;;;;;;;;;;;14.07;19.82;101265.72;4920526;29;20450;-82
2022/03/12 06:00:17;;;;;;;7.55;5.20;;;;;;;14.24;19.66;101272.63;4933710;29;20442;-83
2022/03/12 06:02:50;;;;;;;8.93;5.72;;;;;;;14.26;19.82;101269.75;4948425;29;20047;-83
2022/03/12 06:05:19;;;;;;;8.18;5.50;;;;;;;14.24;19.63;101271.75;4941856;29;20059;-83
2022/03/12 06:07:46;;;;;;;8.57;5.40;;;;;;;14.21;19.58;101270.13;4933272;29;20206;-82
2022/03/12 06:10:16;;;;;;;8.93;6.18;;;;;;;14.21;19.70;101270.13;4931766;29;20547;-83
2022/03/12 06:12:43;;;;;;;9.02;5.68;;;;;;;14.19;20.08;101263.03;4931701;29;20407;-83
2022/03/12 06:15:12;;;;;;;8.85;5.30;;;;;;;14.19;19.73;101271.22;4932776;29;20557;-83
2022/03/12 06:17:39;;;;;;;8.32;5.68;;;;;;;14.19;19.74;101269.34;4941680;29;20059;-83
2022/03/12 06:20:10;;;;;;;10.07;5.35;;;;;;;14.20;20.14;101267.50;4915747;29;20075;-83
2022/03/12 06:22:38;;;;;;;8.32;5.65;;;;;;;14.20;20.18;101272.97;4930914;29;20067;-83
2022/03/12 06:25:07;;;;;;;9.57;6.15;;;;;;;14.20;20.40;101268.38;4924122;29;20066;-82
2022/03/12 06:27:36;;;;;;;8.63;5.72;;;;;;;14.19;20.30;101274.81;4940514;29;20538;-82
2022/03/12 06:30:06;;;;;;;7.47;5.63;;;;;;;14.23;20.36;101278.19;4924151;29;20060;-82
2022/03/12 06:32:38;;;;;;;7.38;5.30;;;;;;;14.24;20.76;101279.94;4923774;29;20051;-83
2022/03/12 06:35:06;;;;;;;8.45;5.80;;;;;;;14.24;20.42;101275.38;4923975;29;20051;-82
2022/03/12 06:37:33;;;;;;;8.20;5.70;;;;;;;14.24;20.75;101285.41;4928892;29;20058;-83
2022/03/12 06:40:01;;;;;;;7.05;5.03;;;;;;;14.25;20.69;101281.66;4924849;29;20055;-83
2022/03/12 06:42:32;;;;;;;9.40;5.38;;;;;;;14.26;20.88;101287.03;4932233;29;20051;-83
2022/03/12 06:45:00;;;;;;;8.82;6.25;;;;;;;14.27;20.96;101283.31;4915117;29;20044;-83
2022/03/12 06:47:29;;;;;;;10.20;5.85;;;;;;;14.28;21.20;101285.06;4915826;29;20464;-82
2022/03/12 06:49:58;;;;;;;9.63;6.07;;;;;;;14.31;21.33;101287.56;4928096;29;20079;-82
2022/03/12 06:52:26;;;;;;;8.45;5.35;;;;;;;14.37;21.54;101289.81;4920043;29;20052;-82
2022/03/12 06:54:52;;;;;;;7.90;5.38;;;;;;;14.42;21.92;101284.91;4924695;29;20135;-84
2022/03/12 06:57:20;;;;;;;8.02;5.40;;;;;;;14.56;22.04;101278.41;4928000;29;20058;-83
2022/03/12 06:59:47;;;;;;;7.32;5.50;;;;;;;14.70;22.24;101280.06;4947109;28;20054;-83
2022/03/12 07:02:17;;;;;;;8.32;5.28;;;;;;;14.89;22.49;101282.25;4935007;29;20048;-83
2022/03/12 07:04:47;;;;;;;8.93;5.95;;;;;;;15.03;22.13;101280.16;4931354;29;20048;-82
2022/03/12 07:07:13;;;;;;;8.65;5.57;;;;;;;15.18;22.09;101283.56;4932349;29;20051;-82
2022/03/12 07:09:41;;;;;;;8.25;5.45;;;;;;;15.30;21.64;101281.72;4929132;29;20130;-81
2022/03/12 07:12:08;;;;;;;7.93;5.65;;;;;;;15.37;21.76;101275.63;4932535;29;20058;-82
2022/03/12 07:14:36;;;;;;;9.20;5.63;;;;;;;15.42;21.61;101273.38;4931040;29;20048;-84
2022/03/12 07:17:03;;;;;;;9.43;5.68;;;;;;;15.47;22.03;101273.91;4943531;29;20559;-83
2022/03/12 07:19:30;;;;;;;8.05;5.18;;;;;;;15.50;21.75;101278.22;4935926;28;20047;-82
2022/03/12 07:21:57;;;;;;;8.77;5.78;;;;;;;15.52;21.78;101273.50;4934864;29;20052;-83
2022/03/12 07:24:24;;;;;;;7.78;5.32;;;;;;;15.55;22.35;101276.91;4917588;29;20422;-82
2022/03/12 07:26:53;;;;;;;7.90;5.53;;;;;;;15.62;22.14;101265.47;4938953;29;20043;-82
2022/03/12 07:29:20;;;;;;;8.63;5.50;;;;;;;15.70;22.44;101285.75;4938207;28;20567;-82
2022/03/12 07:31:49;;;;;;;8.88;5.90;;;;;;;15.79;22.84;101284.13;4934774;29;20499;-82
2022/03/12 07:34:17;;;;;;;8.85;5.30;;;;;;;15.91;22.75;101277.63;4921815;29;20083;-83
2022/03/12 07:36:44;;;;;;;8.05;5.68;;;;;;;16.03;23.20;101281.22;4928202;29;20062;-82
2022/03/12 07:39:11;;;;;;;8.27;5.53;;;;;;;16.15;22.91;101285.69;4917889;29;20055;-82
2022/03/12 07:41:37;;;;;;;7.20;5.25;;;;;;;16.28;22.93;101290.03;4920519;29;20083;-82
2022/03/12 07:44:07;;;;;;;7.97;5.32;;;;;;;16.44;22.63;101306.03;4918479;29;20047;-83
2022/03/12 07:46:34;;;;;;;8.05;5.43;;;;;;;16.56;22.91;101305.00;4930301;29;20051;-83
2022/03/12 07:49:03;;;;;;;7.25;5.03;;;;;;;16.68;22.85;101300.38;4927815;29;20051;-83
2022/03/12 07:51:32;;;;;;;6.45;4.85;;;;;;;16.81;22.87;101308.41;4936348;29;20119;-82
2022/03/12 07:54:00;;;;;;;8.73;5.40;;;;;;;16.90;22.82;101318.59;4929944;29;20146;-80
2022/03/12 07:56:30;;;;;;;7.38;4.80;;;;;;;16.98;22.71;101324.28;4935188;29;20063;-80
2022/03/12 07:58:58;;;;;;;7.85;4.93;;;;;;;17.02;22.49;101323.91;4923651;29;20055;-80
2022/03/12 08:01:25;;;;;;;6.47;4.18;;;;;;;17.07;22.27;101332.59;4921996;29;20166;-80
2022/03/12 08:03:54;;;;;;;6.40;4.68;;;;;;;17.13;22.57;101344.06;4932019;29;20428;-81
2022/03/12 08:06:21;;;;;;;6.55;4.55;;;;;;;17.19;22.81;101346.28;4931763;29;20575;-81
2022/03/12 08:08:48;;;;;;;8.88;5.28;;;;;;;17.26;22.57;101352.97;4929219;28;20059;-81
2022/03/12 08:11:32;;;;;;;7.07;4.70;;;;;;;17.32;22.55;101349.69;4940584;29;20056;-82
2022/03/12 08:14:05;;;;;;;6.80;4.72;;;;;;;17.37;22.63;101358.41;4921452;29;20499;-81
2022/03/12 08:16:34;;;;;;;7.75;4.72;;;;;;;17.43;23.11;101361.47;4948594;29;20039;-82
2022/03/12 08:19:06;;;;;;;8.13;5.03;;;;;;;17.49;23.13;101357.31;4933767;29;20083;-81
2022/03/12 08:21:34;;;;;;;6.80;4.35;;;;;;;17.52;22.55;101362.53;4919855;29;20079;-80
2022/03/12 08:24:02;;;;;;;6.70;4.57;;;;;;;17.58;22.88;101369.38;4924592;29;20043;-81
2022/03/12 08:26:32;;;;;;;7.97;5.38;;;;;;;17.60;23.10;101367.34;4939741;29;20111;-80
2022/03/12 08:28:59;;;;;;;6.28;4.38;;;;;;;17.62;23.02;101373.63;4933938;29;20360;-81
2022/03/12 08:31:27;;;;;;;6.85;4.78;;;;;;;17.63;23.00;101381.69;4936799;29;20087;-80
2022/03/12 08:33:53;;;;;;;6.47;4.63;;;;;;;17.64;23.08;101368.84;4937743;29;20055;-79
2022/03/12 08:36:20;;;;;;;6.78;4.80;;;;;;;17.65;23.00;101378.81;4933736;29;20052;-81
2022/03/12 08:38:47;;;;;;;6.95;4.90;;;;;;;17.64;23.02;101380.69;4923463;29;20060;-82
2022/03/12 08:41:15;;;;;;;6.60;4.70;;;;;;;17.65;23.16;101374.22;4937207;29;20435;-82
2022/03/12 08:43:42;;;;;;;7.15;4.90;;;;;;;17.67;22.79;101379.56;4907578;29;20711;-82
2022/03/12 08:46:09;;;;;;;7.03;4.57;;;;;;;17.68;23.00;101378.56;4921706;29;20052;-81
2022/03/12 08:48:36;;;;;;;7.25;5.05;;;;;;;17.72;23.33;101389.13;4932160;29;20059;-83
2022/03/12 08:51:04;;;;;;;7.28;4.97;;;;;;;17.76;23.35;101385.13;4937121;29;20415;-82
2022/03/12 08:53:30;;;;;;;7.35;4.80;;;;;;;17.78;23.54;101387.75;4931346;29;20055;-82
2022/03/12 08:56:00;;;;;;;8.40;4.88;;;;;;;17.82;23.34;101381.81;4927662;29;20056;-83
2022/03/12 08:58:29;;;;;;;7.82;4.63;;;;;;;17.87;23.52;101393.25;4935969;28;20072;-83
2022/03/12 09:00:58;;;;;;;7.38;4.68;;;;;;;17.94;23.43;101393.59;4935052;29;20047;-83
2022/03/12 09:03:25;;;;;;;5.32;4.22;;;;;;;17.98;23.50;101396.94;4932251;29;20052;-84
2022/03/12 09:05:53;;;;;;;7.00;5.00;;;;;;;18.05;23.84;101384.38;4925667;29;20098;-82
2022/03/12 09:08:20;;;;;;;7.00;4.60;;;;;;;18.11;23.59;101387.47;4931259;28;20054;-82
2022/03/12 09:10:47;;;;;;;6.95;4.35;;;;;;;18.18;23.63;101387.78;4933275;29;20048;-83
2022/03/12 09:13:17;;;;;;;7.25;4.80;;;;;;;18.23;23.96;101391.84;4929078;29;20051;-83
2022/03/12 09:15:44;;;;;;;6.28;4.55;;;;;;;18.27;23.73;101395.19;4935844;29;20050;-82
2022/03/12 09:18:11;;;;;;;7.22;4.60;;;;;;;18.35;24.13;101403.63;4933452;29;20456;-83
2022/03/12 09:20:47;;;;;;;8.00;4.80;;;;;;;18.40;23.92;101398.56;4920110;29;20123;-82
2022/03/12 09:23:16;;;;;;;6.25;4.57;;;;;;;18.46;23.75;101400.75;4934733;28;20059;-82
2022/03/12 09:25:43;;;;;;;7.60;4.93;;;;;;;18.51;23.96;101398.47;4920428;29;20075;-83
2022/03/12 09:28:11;;;;;;;8.07;5.00;;;;;;;18.59;24.38;101398.66;4914052;29;20047;-83
2022/03/12 09:30:40;;;;;;;6.30;4.45;;;;;;;18.63;24.09;101404.72;4918525;29;20143;-83
2022/03/12 09:33:08;;;;;;;6.95;4.57;;;;;;;18.69;24.24;101400.56;4942011;29;20135;-81
2022/03/12 09:35:36;;;;;;;7.35;5.05;;;;;;;18.76;24.33;101401.75;4937693;29;20065;-82
2022/03/12 09:38:03;;;;;;;7.03;4.57;;;;;;;18.79;24.08;101399.56;4938749;29;20059;-81
2022/03/12 09:40:32;;;;;;;6.28;4.43;;;;;;;18.83;24.26;101401.03;4931531;29;20496;-79
2022/03/12 09:42:59;;;;;;;6.18;4.45;;;;;;;18.87;24.23;101405.22;4937282;29;20059;-81
2022/03/12 09:45:26;;;;;;;5.78;3.85;;;;;;;18.90;24.36;101407.69;4930136;28;20099;-81
2022/03/12 09:47:54;;;;;;;5.03;3.50;;;;;;;18.95;24.59;101402.63;4933395;29;20047;-80
2022/03/12 09:50:21;;;;;;;6.30;3.90;;;;;;;18.99;25.07;101412.34;4930872;29;20114;-79
2022/03/12 09:52:49;;;;;;;5.07;3.72;;;;;;;19.06;25.40;101409.88;4945614;29;20047;-81
2022/03/12 09:55:19;;;;;;;5.25;3.50;;;;;;;19.09;25.06;101409.59;4915363;29;20056;-81
2022/03/12 09:57:48;;;;;;;5.13;3.40;;;;;;;19.12;25.13;101405.66;4922933;29;20059;-77
2022/03/12 10:00:16;;;;;;;5.22;3.50;;;;;;;19.14;25.29;101404.53;4914322;29;20582;-78
2022/03/12 10:02:46;;;;;;;5.65;3.75;;;;;;;19.18;24.98;101406.00;4933821;29;20053;-82
2022/03/12 10:05:13;;;;;;;5.55;3.45;;;;;;;19.16;25.28;101410.75;4929739;29;20059;-79
2022/03/12 10:09:03;;;;;;;4.90;3.05;;;;;;;19.15;25.05;101408.16;5107632;27;20401;-73
2022/03/12 10:11:35;;;;;;;4.25;2.80;;;;;;;19.15;25.36;101417.28;5078832;28;20071;-72
2022/03/12 10:14:01;;;;;;;4.53;3.10;;;;;;;19.18;25.26;101408.75;5064358;28;20094;-72
2022/03/12 10:16:37;;;;;;;5.65;2.95;;;;;;;19.19;25.76;101415.97;5066184;28;20135;-71
2022/03/12 10:19:04;;;;;;;6.03;3.53;;;;;;;19.22;25.45;101410.16;5065361;28;20051;-62
2022/03/12 10:21:32;;;;;;;6.65;3.05;;;;;;;19.26;25.87;101411.63;5065817;28;20383;-61
2022/03/12 10:23:59;;;;;;;5.25;2.70;;;;;;;19.32;25.93;101399.16;5061908;28;20114;-62
2022/03/12 10:26:26;;;;;;;4.63;2.72;;;;;;;19.38;26.29;101399.44;5068467;28;20091;-61
2022/03/12 10:28:53;;;;;;;5.57;3.08;;;;;;;19.47;26.24;101396.81;5063778;28;20488;-62
2022/03/12 10:31:19;;;;;;;3.63;2.53;;;;;;;19.55;26.84;101388.72;5062705;28;20087;-61
2022/03/12 10:33:49;;;;;;;3.85;2.50;;;;;;;19.63;26.16;101386.09;5063624;28;20074;-62
2022/03/12 10:36:17;;;;;;;4.50;2.60;;;;;;;19.73;26.51;101386.97;5063869;28;20048;-63
2022/03/12 10:38:50;;;;;;;3.60;2.38;;;;;;;19.83;26.94;101392.44;5063394;28;20121;-63
2022/03/12 10:41:17;;;;;;;4.80;2.80;;;;;;;19.87;26.42;101388.38;5058752;28;20098;-63
2022/03/12 10:43:45;;;;;;;4.53;2.20;;;;;;;19.96;26.47;101373.69;5058152;28;20481;-63
2022/03/12 10:46:29;;;;;;;3.50;2.28;;;;;;;20.08;26.50;101389.91;5039684;28;20077;-63
2022/03/12 10:48:58;;;;;;;3.58;2.28;;;;;;;20.19;26.39;101396.22;5050641;28;20052;-63
2022/03/12 10:51:32;;;;;;;;;;;;;;;20.02;26.25;101386.84;5047630;28;20051;-62
2022/03/12 10:54:08;;;;;;;4.43;2.25;;;;;;;20.34;26.49;101389.25;5043479;28;19921;-63
2022/03/12 10:57:00;;;;;;;4.03;2.33;;;;;;;20.39;26.98;101378.63;5041073;28;20060;-63
2022/03/12 10:59:27;;;;;;;4.15;2.30;;;;;;;20.47;26.20;101382.34;5031721;28;20147;-62
2022/03/12 11:02:04;;;;;;;3.27;2.07;;;;;;;20.56;25.82;101375.03;5044998;28;20053;-63
2022/03/12 11:04:34;;;;;;;4.35;2.33;;;;;;;20.60;25.90;101387.47;5065379;22;20049;-72
2022/03/12 11:07:25;;;;;;;3.70;2.20;;;;;;;20.64;25.73;101383.41;5019083;28;20049;-71
2022/03/12 11:09:58;;;;;;;4.25;2.20;;;;;;;20.68;26.12;101381.19;5026441;28;20504;-71
2022/03/12 11:12:35;;;;;;;3.70;2.25;;;;;;;20.70;25.89;101374.50;5046003;28;20480;-72
2022/03/12 11:15:16;;;;;;;3.55;2.10;;;;;;;20.74;25.82;101389.75;5041592;28;20085;-72
2022/03/12 11:17:51;;;;;;;4.68;2.60;;;;;;;20.78;26.12;101390.28;5041411;28;20045;-72
2022/03/12 11:20:25;;;;;;;3.72;2.30;;;;;;;20.81;25.70;101399.13;5028557;28;20049;-72
2022/03/12 11:23:07;;;;;;;4.47;2.20;;;;;;;20.84;25.78;101389.66;5017056;28;20080;-72
2022/03/12 11:25:36;;;;;;;3.30;1.90;;;;;;;20.82;25.43;101392.59;5029151;28;20053;-72
2022/03/12 11:28:18;;;;;;;3.95;1.98;;;;;;;20.88;25.84;101391.09;5031042;28;20049;-72
2022/03/12 11:30:45;;;;;;;3.55;1.73;;;;;;;20.85;25.78;101388.63;5029275;28;20076;-72
2022/03/12 11:33:14;;;;;;;3.38;1.80;;;;;;;20.87;25.18;101394.88;5024807;28;20068;-73
2022/03/12 11:35:45;;;;;;;4.28;1.92;;;;;;;20.88;25.67;101391.97;5012949;28;20100;-72
2022/03/12 11:38:20;;;;;;;3.60;1.90;;;;;;;20.91;25.82;101389.91;5029872;28;20053;-73